Time;durP1;ratioP1;P1;durP2;ratioP2;P2;SDS_P1;SDS_P2;PMS_P1;PMS_P2;Temp;Humidity;BMP_temperature;BMP_pressure;BME280_temperature;BME280_humidity;BME280_pressure;Samples;Min_cycle;Max_cycle;Signal;HPM_P1;HPM_P2
2021/08/14 00:01:39;;;;;;;19.08;9.52;;;;;;;-145.01;100.00;64805.59;4994358;28;20097;-60
2021/08/14 00:04:05;;;;;;;19.67;10.27;;;;;;;-145.01;100.00;64805.59;4994862;28;20026;-60
2021/08/14 00:06:30;;;;;;;19.13;9.77;;;;;;;-145.01;100.00;64805.59;4994282;28;20038;-60
2021/08/14 00:08:56;;;;;;;19.90;9.55;;;;;;;-145.01;100.00;64805.59;4994062;28;20046;-60
2021/08/14 00:11:21;;;;;;;16.92;8.68;;;;;;;-145.01;100.00;64805.59;4994003;28;20039;-60
2021/08/14 00:13:47;;;;;;;18.92;9.70;;;;;;;-145.01;100.00;64805.59;4994499;28;20027;-60
2021/08/14 00:16:12;;;;;;;20.15;10.05;;;;;;;-145.01;100.00;64805.59;4994159;28;20039;-60
2021/08/14 00:18:37;;;;;;;17.98;10.63;;;;;;;-145.01;100.00;64805.59;4994429;28;20037;-60
2021/08/14 00:21:04;;;;;;;12.25;7.90;;;;;;;-145.01;100.00;64805.59;4992811;28;20061;-60
2021/08/14 00:23:29;;;;;;;22.45;9.85;;;;;;;-145.01;100.00;64805.59;4994514;28;20073;-60
2021/08/14 00:25:57;;;;;;;20.27;11.32;;;;;;;-145.01;100.00;64805.59;4976350;28;20042;-60
2021/08/14 00:28:22;;;;;;;22.00;10.73;;;;;;;-145.01;100.00;64805.59;4994271;28;20030;-60
2021/08/14 00:30:48;;;;;;;22.85;11.38;;;;;;;-145.01;100.00;64805.59;4994001;28;20038;-60
2021/08/14 00:33:13;;;;;;;23.95;12.32;;;;;;;-145.01;100.00;64805.59;4994448;28;20038;-60
2021/08/14 00:35:38;;;;;;;23.67;11.05;;;;;;;-145.01;100.00;64805.59;4993881;28;20034;-60
2021/08/14 00:38:04;;;;;;;27.67;12.63;;;;;;;-145.01;100.00;64805.59;4992773;28;20389;-60
2021/08/14 00:40:29;;;;;;;31.98;12.57;;;;;;;-145.01;100.00;64805.59;4993571;28;20381;-60
2021/08/14 00:42:55;;;;;;;22.58;12.32;;;;;;;-145.01;100.00;64805.59;4992641;28;20031;-60
2021/08/14 00:45:20;;;;;;;28.38;12.43;;;;;;;-145.01;100.00;64805.59;4993822;28;20342;-60
2021/08/14 00:47:46;;;;;;;25.42;13.05;;;;;;;-145.01;100.00;64805.59;4993888;28;20385;-60
2021/08/14 00:50:11;;;;;;;26.35;13.05;;;;;;;-145.01;100.00;64805.59;4993513;28;20023;-60
2021/08/14 00:52:37;;;;;;;27.08;13.30;;;;;;;-145.01;100.00;64805.59;4993260;28;20030;-60
2021/08/14 00:55:03;;;;;;;21.98;11.93;;;;;;;-145.01;100.00;64805.59;4993427;28;20026;-60
2021/08/14 00:57:28;;;;;;;20.35;12.02;;;;;;;-145.01;100.00;64805.59;4993656;28;20030;-60
2021/08/14 00:59:53;;;;;;;18.38;10.60;;;;;;;-145.01;100.00;64805.59;4993909;28;20420;-60
2021/08/14 01:02:19;;;;;;;27.25;12.35;;;;;;;-145.01;100.00;64805.59;4993340;28;20367;-60
2021/08/14 01:04:49;;;;;;;24.67;12.40;;;;;;;-145.01;100.00;64805.59;4993825;28;20054;-60
2021/08/14 01:07:16;;;;;;;25.42;12.20;;;;;;;-145.01;100.00;64805.59;4993198;28;20038;-60
2021/08/14 01:09:41;;;;;;;28.50;12.30;;;;;;;-145.01;100.00;64805.59;4992120;28;20034;-60
2021/08/14 01:12:07;;;;;;;29.98;12.80;;;;;;;-145.01;100.00;64805.59;4991549;28;20041;-60
2021/08/14 01:14:32;;;;;;;23.20;11.90;;;;;;;-145.01;100.00;64805.59;4993639;28;20461;-60
2021/08/14 01:16:59;;;;;;;26.73;11.55;;;;;;;-145.01;100.00;64805.59;4992958;28;20497;-60
2021/08/14 01:19:24;;;;;;;23.55;10.55;;;;;;;-145.01;100.00;64805.59;4992925;28;20112;-60
2021/08/14 01:21:50;;;;;;;29.35;10.43;;;;;;;-145.01;100.00;64805.59;4992690;28;20042;-60
2021/08/14 01:24:15;;;;;;;30.95;12.10;;;;;;;-145.01;100.00;64805.59;4992038;28;20037;-60
2021/08/14 01:26:41;;;;;;;18.25;11.05;;;;;;;-145.01;100.00;64805.59;4991592;28;20034;-60
2021/08/14 01:29:07;;;;;;;22.33;11.48;;;;;;;-145.01;100.00;64805.59;4993560;28;20544;-60
2021/08/14 01:31:32;;;;;;;20.48;11.18;;;;;;;-145.01;100.00;64805.59;4991662;28;20042;-60
2021/08/14 01:33:58;;;;;;;23.17;11.50;;;;;;;-145.01;100.00;64805.59;4991935;28;20054;-60
2021/08/14 01:36:23;;;;;;;26.80;13.35;;;;;;;-145.01;100.00;64805.59;4975445;28;20045;-60
2021/08/14 01:38:51;;;;;;;26.52;12.90;;;;;;;-145.01;100.00;64805.59;4993288;28;20030;-60
2021/08/14 01:41:16;;;;;;;27.48;13.75;;;;;;;-145.01;100.00;64805.59;4992946;28;20504;-60
2021/08/14 01:44:01;;;;;;;23.30;12.18;;;;;;;-145.01;100.00;64805.59;4993437;28;20057;-60
2021/08/14 01:46:28;;;;;;;28.17;12.45;;;;;;;-145.01;100.00;64805.59;4992932;28;20038;-60
2021/08/14 01:48:53;;;;;;;24.20;11.75;;;;;;;-145.01;100.00;64805.59;4993364;28;20030;-60
2021/08/14 01:51:19;;;;;;;28.88;12.55;;;;;;;-145.01;100.00;64805.59;4991648;28;20039;-60
2021/08/14 01:53:46;;;;;;;21.02;11.23;;;;;;;-145.01;100.00;64805.59;4993228;28;20113;-61
2021/08/14 01:56:12;;;;;;;25.92;12.23;;;;;;;-145.01;100.00;64805.59;4992704;28;20039;-60
2021/08/14 01:58:37;;;;;;;25.98;12.13;;;;;;;-145.01;100.00;64805.59;4992071;28;20037;-60
2021/08/14 02:01:03;;;;;;;20.92;11.18;;;;;;;-145.01;100.00;64805.59;4991359;28;20489;-60
2021/08/14 02:03:28;;;;;;;21.73;11.20;;;;;;;-145.01;100.00;64805.59;4992964;28;20026;-60
2021/08/14 02:05:53;;;;;;;26.17;10.73;;;;;;;-145.01;100.00;64805.59;4992939;28;20428;-60
2021/08/14 02:08:19;;;;;;;23.90;11.38;;;;;;;-145.01;100.00;64805.59;4992797;28;20034;-60
2021/08/14 02:10:44;;;;;;;24.55;11.48;;;;;;;-145.01;100.00;64805.59;4992730;28;20378;-61
2021/08/14 02:13:10;;;;;;;27.08;11.77;;;;;;;-145.01;100.00;64805.59;4992909;28;20022;-60
2021/08/14 02:15:35;;;;;;;23.80;11.68;;;;;;;-145.01;100.00;64805.59;4991470;28;20042;-60
2021/08/14 02:18:01;;;;;;;23.80;12.07;;;;;;;-145.01;100.00;64805.59;4992919;28;20081;-60
2021/08/14 02:20:26;;;;;;;24.92;13.60;;;;;;;-145.01;100.00;64805.59;4991271;28;20050;-60
2021/08/14 02:22:52;;;;;;;25.75;12.43;;;;;;;-145.01;100.00;64805.59;4991488;28;20034;-60
2021/08/14 02:25:17;;;;;;;24.00;12.43;;;;;;;-145.01;100.00;64805.59;4992644;28;20030;-60
2021/08/14 02:27:42;;;;;;;29.63;12.23;;;;;;;-145.01;100.00;64805.59;4992821;28;20470;-61
2021/08/14 02:30:08;;;;;;;25.98;11.07;;;;;;;-145.01;100.00;64805.59;4992348;28;20073;-60
2021/08/14 02:32:34;;;;;;;23.23;12.68;;;;;;;-145.01;100.00;64805.59;4995803;28;20030;-60
2021/08/14 02:34:59;;;;;;;24.77;12.05;;;;;;;-145.01;100.00;64805.59;4995217;28;20441;-60
2021/08/14 02:37:24;;;;;;;22.85;11.07;;;;;;;-145.01;100.00;64805.59;4995948;28;20046;-60
2021/08/14 02:39:50;;;;;;;18.42;9.95;;;;;;;-145.01;100.00;64805.59;4996299;28;20026;-60
2021/08/14 02:42:15;;;;;;;21.13;10.05;;;;;;;-145.01;100.00;64805.59;4995850;28;20042;-60
2021/08/14 02:44:41;;;;;;;18.48;10.27;;;;;;;-145.01;100.00;64805.59;4996292;28;20030;-60
2021/08/14 02:47:06;;;;;;;21.38;10.05;;;;;;;-145.01;100.00;64805.59;4995698;28;20045;-60
2021/08/14 02:49:31;;;;;;;23.42;11.13;;;;;;;-145.01;100.00;64805.59;4996171;28;20026;-60
2021/08/14 02:51:57;;;;;;;27.25;11.98;;;;;;;-145.01;100.00;64805.59;4995718;28;20038;-60
2021/08/14 02:54:22;;;;;;;24.08;10.80;;;;;;;-145.01;100.00;64805.59;4995728;28;20022;-60
2021/08/14 02:56:48;;;;;;;27.42;12.15;;;;;;;-145.01;100.00;64805.59;4995642;28;20038;-60
2021/08/14 02:59:13;;;;;;;25.58;12.73;;;;;;;-145.01;100.00;64805.59;4996106;28;20033;-60
2021/08/14 03:01:39;;;;;;;23.00;11.10;;;;;;;-145.01;100.00;64805.59;4994464;28;20150;-60
2021/08/14 03:04:04;;;;;;;23.70;12.20;;;;;;;-145.01;100.00;64805.59;4996060;28;20031;-60
2021/08/14 03:06:29;;;;;;;24.83;12.45;;;;;;;-145.01;100.00;64805.59;4995563;28;20038;-60
2021/08/14 03:08:55;;;;;;;22.60;11.75;;;;;;;-145.01;100.00;64805.59;4995841;28;20077;-60
2021/08/14 03:11:20;;;;;;;23.98;11.15;;;;;;;-145.01;100.00;64805.59;4995503;28;20517;-60
2021/08/14 03:13:46;;;;;;;21.65;10.18;;;;;;;-145.01;100.00;64805.59;4996024;28;20076;-60
2021/08/14 03:16:11;;;;;;;22.08;11.82;;;;;;;-145.01;100.00;64805.59;4995418;28;20034;-60
2021/08/14 03:18:37;;;;;;;23.15;11.55;;;;;;;-145.01;100.00;64805.59;4994412;28;20041;-60
2021/08/14 03:21:02;;;;;;;25.65;11.85;;;;;;;-145.01;100.00;64805.59;4994006;28;20042;-60
2021/08/14 03:23:28;;;;;;;24.60;12.43;;;;;;;-145.01;100.00;64805.59;4995949;28;20053;-61
2021/08/14 03:25:53;;;;;;;25.85;11.88;;;;;;;-145.01;100.00;64805.59;4995244;28;20089;-60
2021/08/14 03:28:18;;;;;;;26.38;12.68;;;;;;;-145.01;100.00;64805.59;4995690;28;20084;-60
2021/08/14 03:30:44;;;;;;;26.67;12.65;;;;;;;-145.01;100.00;64805.59;4995110;28;20041;-60
2021/08/14 03:33:09;;;;;;;25.27;11.93;;;;;;;-145.01;100.00;64805.59;4995506;28;20532;-60
2021/08/14 03:35:35;;;;;;;25.13;12.82;;;;;;;-145.01;100.00;64805.59;4995127;28;20397;-60
2021/08/14 03:38:00;;;;;;;19.88;11.40;;;;;;;-145.01;100.00;64805.59;4995242;28;20483;-60
2021/08/14 03:40:26;;;;;;;20.45;9.98;;;;;;;-145.01;100.00;64805.59;4995008;28;20038;-60
2021/08/14 03:42:51;;;;;;;18.73;10.43;;;;;;;-145.01;100.00;64805.59;4994759;28;20034;-60
2021/08/14 03:45:16;;;;;;;27.58;11.70;;;;;;;-145.01;100.00;64805.59;4995165;28;20084;-61
2021/08/14 03:47:42;;;;;;;21.13;12.25;;;;;;;-145.01;100.00;64805.59;4995376;28;20457;-60
2021/08/14 03:50:08;;;;;;;21.98;10.85;;;;;;;-145.01;100.00;64805.59;4993499;28;20026;-60
2021/08/14 03:52:34;;;;;;;23.02;11.10;;;;;;;-145.01;100.00;64805.59;4995083;28;20029;-60
2021/08/14 03:55:01;;;;;;;17.33;10.00;;;;;;;-145.01;100.00;64805.59;4995101;28;20030;-60
2021/08/14 03:57:27;;;;;;;19.77;9.93;;;;;;;-145.01;100.00;64805.59;4993712;28;20515;-60
2021/08/14 03:59:52;;;;;;;20.05;10.15;;;;;;;-145.01;100.00;64805.59;4995238;28;20027;-60
2021/08/14 04:02:18;;;;;;;21.45;10.35;;;;;;;-145.01;100.00;64805.59;4994566;28;20045;-60
2021/08/14 04:04:43;;;;;;;22.20;10.70;;;;;;;-145.01;100.00;64805.59;4994739;28;20037;-60
2021/08/14 04:07:08;;;;;;;18.67;10.23;;;;;;;-145.01;100.00;64805.59;4994479;28;20061;-60
2021/08/14 04:09:34;;;;;;;19.80;10.90;;;;;;;-145.01;100.00;64805.59;4994672;28;20409;-60
2021/08/14 04:11:59;;;;;;;32.83;14.20;;;;;;;-145.01;100.00;64805.59;4993382;28;20481;-60
2021/08/14 04:14:25;;;;;;;26.95;13.93;;;;;;;-145.01;100.00;64805.59;4994856;28;20500;-60
2021/08/14 04:16:50;;;;;;;26.13;13.68;;;;;;;-145.01;100.00;64805.59;4994226;28;20031;-60
2021/08/14 04:19:16;;;;;;;23.35;12.65;;;;;;;-145.01;100.00;64805.59;4993337;28;20031;-60
2021/08/14 04:21:41;;;;;;;20.75;10.82;;;;;;;-145.01;100.00;64805.59;4994191;28;20042;-60
2021/08/14 04:24:06;;;;;;;27.27;10.75;;;;;;;-145.01;100.00;64805.59;4994653;28;20037;-61
2021/08/14 04:26:32;;;;;;;17.73;9.65;;;;;;;-145.01;100.00;64805.59;4994054;28;20501;-60
2021/08/14 04:28:57;;;;;;;21.60;10.10;;;;;;;-145.01;100.00;64805.59;4994399;28;20031;-60
2021/08/14 04:31:23;;;;;;;19.85;10.93;;;;;;;-145.01;100.00;64805.59;4994119;28;20042;-60
2021/08/14 04:33:48;;;;;;;19.58;10.25;;;;;;;-145.01;100.00;64805.59;4994405;28;20019;-60
2021/08/14 04:36:14;;;;;;;21.33;12.00;;;;;;;-145.01;100.00;64805.59;4994050;28;20034;-60
2021/08/14 04:38:39;;;;;;;25.13;12.70;;;;;;;-145.01;100.00;64805.59;4993011;28;20049;-60
2021/08/14 04:41:05;;;;;;;29.15;12.20;;;;;;;-145.01;100.00;64805.59;4976373;28;20489;-61
2021/08/14 04:43:30;;;;;;;24.50;11.35;;;;;;;-145.01;100.00;64805.59;4994253;28;20022;-61
2021/08/14 04:45:56;;;;;;;20.10;10.45;;;;;;;-145.01;100.00;64805.59;4993799;28;20034;-61
2021/08/14 04:48:21;;;;;;;20.35;10.65;;;;;;;-145.01;100.00;64805.59;4994144;28;20026;-61
2021/08/14 04:50:46;;;;;;;21.83;10.63;;;;;;;-145.01;100.00;64805.59;4993702;28;20050;-60
2021/08/14 04:53:12;;;;;;;18.20;10.10;;;;;;;-145.01;100.00;64805.59;4994131;28;20038;-61
2021/08/14 04:55:37;;;;;;;20.13;9.55;;;;;;;-145.01;100.00;64805.59;4993704;28;20037;-60
2021/08/14 04:58:03;;;;;;;20.50;9.07;;;;;;;-145.01;100.00;64805.59;4993988;28;20034;-60
2021/08/14 05:00:28;;;;;;;23.33;8.95;;;;;;;-145.01;100.00;64805.59;4993556;28;20042;-60
2021/08/14 05:02:53;;;;;;;15.80;8.43;;;;;;;-145.01;100.00;64805.59;4993875;28;20026;-60
2021/08/14 05:05:19;;;;;;;17.10;8.82;;;;;;;-145.01;100.00;64805.59;4992903;28;20049;-61
2021/08/14 05:07:44;;;;;;;22.23;8.98;;;;;;;-145.01;100.00;64805.59;4993933;28;20381;-60
2021/08/14 05:10:12;;;;;;;19.98;8.75;;;;;;;-145.01;100.00;64805.59;4993055;28;20042;-60
2021/08/14 05:12:38;;;;;;;13.75;8.10;;;;;;;-145.01;100.00;64805.59;4992451;28;20033;-60
2021/08/14 05:15:04;;;;;;;19.27;8.85;;;;;;;-145.01;100.00;64805.59;4993165;28;20034;-61
2021/08/14 05:17:29;;;;;;;13.35;8.07;;;;;;;-145.01;100.00;64805.59;4993506;28;20028;-61
2021/08/14 05:19:55;;;;;;;17.65;7.63;;;;;;;-145.01;100.00;64805.59;4993407;28;20470;-61
2021/08/14 05:22:20;;;;;;;23.15;8.80;;;;;;;-145.01;100.00;64805.59;4993232;28;20354;-61
2021/08/14 05:24:46;;;;;;;14.88;8.13;;;;;;;-145.01;100.00;64805.59;4993653;28;20289;-61
2021/08/14 05:27:11;;;;;;;15.27;8.07;;;;;;;-145.01;100.00;64805.59;4993179;28;20390;-60
2021/08/14 05:29:39;;;;;;;20.70;7.78;;;;;;;-145.01;100.00;64805.59;4992295;28;20033;-60
2021/08/14 05:32:06;;;;;;;27.58;7.97;;;;;;;-145.01;100.00;64805.59;4992937;28;20125;-61
2021/08/14 05:34:31;;;;;;;16.67;7.75;;;;;;;-145.01;100.00;64805.59;4992196;28;20208;-60
2021/08/14 05:36:57;;;;;;;22.48;7.57;;;;;;;-145.01;100.00;64805.59;4992935;28;20509;-61
2021/08/14 05:39:22;;;;;;;15.35;7.47;;;;;;;-145.01;100.00;64805.59;4993577;28;20026;-61
2021/08/14 05:41:52;;;;;;;13.38;7.55;;;;;;;-145.01;100.00;64805.59;4992934;28;20089;-61
2021/08/14 05:44:17;;;;;;;17.63;7.80;;;;;;;-145.01;100.00;64805.59;4993259;28;20048;-60
2021/08/14 05:46:43;;;;;;;17.05;7.20;;;;;;;-145.01;100.00;64805.59;4992928;28;20492;-60
2021/08/14 05:49:08;;;;;;;20.67;7.07;;;;;;;-145.01;100.00;64805.59;4993258;28;20026;-60
2021/08/14 05:51:36;;;;;;;16.10;6.68;;;;;;;-145.01;100.00;64805.59;4992718;28;20077;-60
2021/08/14 05:54:01;;;;;;;14.15;7.18;;;;;;;-145.01;100.00;64805.59;4993309;28;20396;-60
2021/08/14 05:56:27;;;;;;;12.90;7.25;;;;;;;-145.01;100.00;64805.59;4991553;28;20042;-60
2021/08/14 05:58:52;;;;;;;13.68;7.00;;;;;;;-145.01;100.00;64805.59;4993053;28;20476;-60
2021/08/14 06:01:17;;;;;;;18.83;7.25;;;;;;;-145.01;100.00;64805.59;4992720;28;20039;-60
2021/08/14 06:03:43;;;;;;;13.48;7.50;;;;;;;-145.01;100.00;64805.59;4993012;28;20072;-61
2021/08/14 06:06:09;;;;;;;12.68;6.88;;;;;;;-145.01;100.00;64805.59;4993407;28;20093;-60
2021/08/14 06:08:34;;;;;;;13.80;6.78;;;;;;;-145.01;100.00;64805.59;4996878;28;20469;-61
2021/08/14 06:11:00;;;;;;;12.45;6.47;;;;;;;-145.01;100.00;64805.59;4996423;28;20046;-60
2021/08/14 06:13:25;;;;;;;13.80;6.72;;;;;;;-145.01;100.00;64805.59;4996944;28;20037;-60
2021/08/14 06:15:51;;;;;;;14.63;7.20;;;;;;;-145.01;100.00;64805.59;4995027;28;20058;-61
2021/08/14 06:18:16;;;;;;;17.90;7.07;;;;;;;-145.01;100.00;64805.59;4995314;28;20358;-60
2021/08/14 06:20:41;;;;;;;10.73;6.60;;;;;;;-145.01;100.00;64805.59;4996269;28;20045;-61
2021/08/14 06:23:07;;;;;;;16.85;6.50;;;;;;;-145.01;100.00;64805.59;4996877;28;20026;-61
2021/08/14 06:25:32;;;;;;;11.32;5.78;;;;;;;-145.01;100.00;64805.59;4996427;28;20042;-61
2021/08/14 06:27:58;;;;;;;11.52;6.63;;;;;;;-145.01;100.00;64805.59;4995372;28;20022;-60
2021/08/14 06:30:23;;;;;;;11.60;6.43;;;;;;;-145.01;100.00;64805.59;4996270;28;20033;-60
2021/08/14 06:32:49;;;;;;;13.93;7.45;;;;;;;-145.01;100.00;64805.59;4995173;28;20105;-60
2021/08/14 06:35:14;;;;;;;10.75;6.75;;;;;;;-145.01;100.00;64805.59;4996165;28;20464;-60
2021/08/14 06:37:43;;;;;;;13.05;8.18;;;;;;;-145.01;100.00;64805.59;4996479;28;20026;-60
2021/08/14 06:40:12;;;;;;;17.27;8.25;;;;;;;-145.01;100.00;64805.59;4995984;28;20022;-60
2021/08/14 06:42:37;;;;;;;15.38;8.95;;;;;;;-145.01;100.00;64805.59;4996249;28;20373;-60
2021/08/14 06:45:03;;;;;;;15.18;9.13;;;;;;;-145.01;100.00;64805.59;4995878;28;20035;-60
2021/08/14 06:47:29;;;;;;;16.02;8.90;;;;;;;-145.01;100.00;64805.59;4995062;28;20096;-60
2021/08/14 06:49:54;;;;;;;18.40;9.32;;;;;;;-145.01;100.00;64805.59;4996376;28;20033;-59
2021/08/14 06:52:20;;;;;;;15.23;9.02;;;;;;;-145.01;100.00;64805.59;4995709;28;20054;-60
2021/08/14 06:54:45;;;;;;;17.08;8.65;;;;;;;-145.01;100.00;64805.59;4996142;28;20030;-60
2021/08/14 06:57:11;;;;;;;12.95;8.63;;;;;;;-145.01;100.00;64805.59;4995736;28;20485;-60
2021/08/14 06:59:36;;;;;;;15.43;8.82;;;;;;;-145.01;100.00;64805.59;4996134;28;20026;-60
2021/08/14 07:02:02;;;;;;;20.25;8.95;;;;;;;-145.01;100.00;64805.59;4995811;28;20473;-60
2021/08/14 07:04:27;;;;;;;14.68;8.32;;;;;;;-145.01;100.00;64805.59;4996261;28;20023;-60
2021/08/14 07:06:53;;;;;;;11.48;7.47;;;;;;;-145.01;100.00;64805.59;4994163;28;20405;-60
2021/08/14 07:09:18;;;;;;;12.73;7.30;;;;;;;-145.01;100.00;64805.59;4995430;28;20505;-62
2021/08/14 07:11:45;;;;;;;16.48;7.55;;;;;;;-145.01;100.00;64805.59;4995332;28;20043;-60
2021/08/14 07:14:11;;;;;;;14.43;8.00;;;;;;;-145.01;100.00;64805.59;4995867;28;20030;-60
2021/08/14 07:16:37;;;;;;;10.60;7.25;;;;;;;-145.01;100.00;64805.59;4993723;28;20031;-60
2021/08/14 07:19:02;;;;;;;11.88;7.63;;;;;;;-145.01;100.00;64805.59;4994494;28;20357;-60
2021/08/14 07:21:28;;;;;;;16.30;8.10;;;;;;;-145.01;100.00;64805.59;4994143;28;20093;-60
2021/08/14 07:23:54;;;;;;;12.05;7.97;;;;;;;-145.01;100.00;64805.59;4995654;28;20088;-60
2021/08/14 07:26:19;;;;;;;13.05;8.35;;;;;;;-145.01;100.00;64805.59;4995328;28;20137;-60
2021/08/14 07:28:45;;;;;;;14.38;7.65;;;;;;;-145.01;100.00;64805.59;4994362;28;20026;-60
2021/08/14 07:31:10;;;;;;;12.23;7.57;;;;;;;-145.01;100.00;64805.59;4994943;28;20567;-60
2021/08/14 07:33:36;;;;;;;13.13;7.55;;;;;;;-145.01;100.00;64805.59;4995379;28;20022;-60
2021/08/14 07:36:01;;;;;;;11.27;7.90;;;;;;;-145.01;100.00;64805.59;4995080;28;20042;-60
2021/08/14 07:38:26;;;;;;;12.40;7.90;;;;;;;-145.01;100.00;64805.59;4995278;28;20034;-60
2021/08/14 07:40:52;;;;;;;14.20;8.02;;;;;;;-145.01;100.00;64805.59;4994911;28;20030;-60
2021/08/14 07:43:17;;;;;;;12.77;8.07;;;;;;;-145.01;100.00;64805.59;4995243;28;20019;-60
2021/08/14 07:45:43;;;;;;;16.15;8.50;;;;;;;-145.01;100.00;64805.59;4977346;28;20393;-60
2021/08/14 07:48:08;;;;;;;15.18;8.13;;;;;;;-145.01;100.00;64805.59;4995149;28;20072;-60
2021/08/14 07:50:34;;;;;;;13.73;7.90;;;;;;;-145.01;100.00;64805.59;4994649;28;20053;-60
2021/08/14 07:53:00;;;;;;;11.57;7.20;;;;;;;-145.01;100.00;64805.59;4995010;28;20022;-60
2021/08/14 07:55:26;;;;;;;13.30;8.27;;;;;;;-145.01;100.00;64805.59;4994701;28;20035;-60
2021/08/14 07:57:52;;;;;;;15.15;7.00;;;;;;;-145.01;100.00;64805.59;4994895;28;20041;-60
2021/08/14 08:00:19;;;;;;;17.05;7.13;;;;;;;-145.01;100.00;64805.59;4994486;28;20022;-60
2021/08/14 08:02:44;;;;;;;15.93;7.88;;;;;;;-145.01;100.00;64805.59;4993635;28;20066;-60
2021/08/14 08:05:10;;;;;;;15.27;8.00;;;;;;;-145.01;100.00;64805.59;4994414;28;20498;-60
2021/08/14 08:07:43;;;;;;;17.88;7.57;;;;;;;-145.01;100.00;64805.59;4994767;28;20035;-60
2021/08/14 08:10:10;;;;;;;13.45;7.80;;;;;;;-145.01;100.00;64805.59;4994096;28;20042;-60
2021/08/14 08:12:35;;;;;;;14.70;7.88;;;;;;;-145.01;100.00;64805.59;4994537;28;20022;-60
2021/08/14 08:15:01;;;;;;;12.98;7.68;;;;;;;-145.01;100.00;64805.59;4994333;28;20030;-61
2021/08/14 08:17:26;;;;;;;17.25;7.60;;;;;;;-145.01;100.00;64805.59;4994459;28;20041;-60
2021/08/14 08:19:51;;;;;;;16.45;7.28;;;;;;;-145.01;100.00;64805.59;4994423;28;20026;-60
2021/08/14 08:22:17;;;;;;;12.65;6.95;;;;;;;-145.01;100.00;64805.59;4994012;28;20035;-60
2021/08/14 08:24:42;;;;;;;10.73;6.43;;;;;;;-145.01;100.00;64805.59;4994385;28;20081;-60
2021/08/14 08:27:08;;;;;;;11.23;7.20;;;;;;;-145.01;100.00;64805.59;4994012;28;20049;-60
2021/08/14 08:29:33;;;;;;;12.27;6.57;;;;;;;-145.01;100.00;64805.59;4994267;28;20019;-60
2021/08/14 08:31:59;;;;;;;13.35;7.40;;;;;;;-145.01;100.00;64805.59;4993947;28;20061;-60
2021/08/14 08:34:24;;;;;;;18.30;7.57;;;;;;;-145.01;100.00;64805.59;4992993;28;20531;-60
2021/08/14 08:36:51;;;;;;;12.00;6.60;;;;;;;-145.01;100.00;64805.59;4993709;28;20093;-60
2021/08/14 08:39:16;;;;;;;12.52;6.85;;;;;;;-145.01;100.00;64805.59;4994149;28;20034;-60
2021/08/14 08:41:41;;;;;;;12.95;6.13;;;;;;;-145.01;100.00;64805.59;4993593;28;20093;-60
2021/08/14 08:44:07;;;;;;;15.05;6.07;;;;;;;-145.01;100.00;64805.59;4994063;28;20026;-60
2021/08/14 08:46:32;;;;;;;11.07;6.15;;;;;;;-145.01;100.00;64805.59;4992441;28;20440;-60
2021/08/14 08:48:58;;;;;;;9.85;5.45;;;;;;;-145.01;100.00;64805.59;4992614;28;20082;-60
2021/08/14 08:51:24;;;;;;;9.55;5.80;;;;;;;-145.01;100.00;64805.59;4992437;28;20524;-61
2021/08/14 08:53:50;;;;;;;11.65;5.68;;;;;;;-145.01;100.00;64805.59;4993895;28;20026;-60
2021/08/14 08:56:16;;;;;;;10.05;5.53;;;;;;;-145.01;100.00;64805.59;4993590;28;20034;-60
2021/08/14 08:58:42;;;;;;;8.80;5.55;;;;;;;-145.01;100.00;64805.59;4994493;28;20073;-61
2021/08/14 09:01:10;;;;;;;12.48;5.60;;;;;;;-145.01;100.00;64805.59;4992036;28;20437;-60
2021/08/14 09:03:35;;;;;;;7.47;4.80;;;;;;;-145.01;100.00;64805.59;4993832;28;20029;-60
2021/08/14 09:06:04;;;;;;;7.50;4.97;;;;;;;-145.01;100.00;64805.59;4993857;28;20030;-61
2021/08/14 09:08:30;;;;;;;9.93;5.20;;;;;;;-145.01;100.00;64805.59;4992501;28;20042;-61
2021/08/14 09:11:14;;;;;;;11.95;5.18;;;;;;;-145.01;100.00;64805.59;4993306;28;20034;-61
2021/08/14 09:14:00;;;;;;;8.80;5.32;;;;;;;-145.01;100.00;64805.59;4992252;28;20488;-60
2021/08/14 09:16:26;;;;;;;11.35;5.30;;;;;;;-145.01;100.00;64805.59;4992046;28;20040;-60
2021/08/14 09:19:00;;;;;;;10.02;4.93;;;;;;;-145.01;100.00;64805.59;4993357;28;20034;-60
2021/08/14 09:21:32;;;;;;;11.85;5.28;;;;;;;-145.01;100.00;64805.59;4992965;28;20057;-60
2021/08/14 09:23:58;;;;;;;8.20;5.22;;;;;;;-145.01;100.00;64805.59;4993400;28;20381;-60
2021/08/14 09:26:24;;;;;;;7.93;4.93;;;;;;;-145.01;100.00;64805.59;4993197;28;20085;-64
2021/08/14 09:29:01;;;;;;;6.68;4.80;;;;;;;-145.01;100.00;64805.59;4993514;28;20358;-60
2021/08/14 09:31:47;;;;;;;7.45;4.93;;;;;;;-145.01;100.00;64805.59;4993479;28;20396;-60
2021/08/14 09:34:20;;;;;;;10.63;5.03;;;;;;;-145.01;100.00;64805.59;4993185;28;20085;-60
2021/08/14 09:36:59;;;;;;;11.02;5.50;;;;;;;-145.01;100.00;64805.59;4991777;28;20042;-60
2021/08/14 09:39:25;;;;;;;7.38;4.93;;;;;;;-145.01;100.00;64805.59;4993445;28;20031;-60
2021/08/14 09:42:11;;;;;;;11.93;5.07;;;;;;;-145.01;100.00;64805.59;4991738;28;20034;-60
2021/08/14 09:44:36;;;;;;;12.30;4.80;;;;;;;-145.01;100.00;64805.59;4993123;28;20042;-60
2021/08/14 09:47:12;;;;;;;9.13;5.45;;;;;;;-145.01;100.00;64805.59;4992661;28;20030;-60
2021/08/14 09:49:50;;;;;;;8.57;4.82;;;;;;;-145.01;100.00;64805.59;4992060;28;20393;-60
2021/08/14 09:52:23;;;;;;;8.17;4.20;;;;;;;-145.01;100.00;64805.59;4991626;28;20226;-60
2021/08/14 09:54:49;;;;;;;9.13;4.70;;;;;;;-145.01;100.00;64805.59;4993147;28;20428;-60
2021/08/14 09:57:18;;;;;;;9.15;4.50;;;;;;;-145.01;100.00;64805.59;4992472;28;20061;-60
2021/08/14 09:59:47;;;;;;;17.05;4.97;;;;;;;-145.01;100.00;64805.59;4993125;28;20031;-60
2021/08/14 10:02:17;;;;;;;20.80;4.63;;;;;;;-145.01;100.00;64805.59;4991184;28;20051;-60
2021/08/14 10:04:46;;;;;;;12.82;4.68;;;;;;;-145.01;100.00;64805.59;4992853;28;20461;-60
2021/08/14 10:07:15;;;;;;;7.10;4.75;;;;;;;-145.01;100.00;64805.59;4992477;28;20034;-60
2021/08/14 10:09:42;;;;;;;14.45;5.07;;;;;;;-145.01;100.00;64805.59;4992885;28;20052;-60
2021/08/14 10:12:08;;;;;;;7.45;4.50;;;;;;;-145.01;100.00;64805.59;4991316;28;20049;-60
2021/08/14 10:14:33;;;;;;;8.55;4.70;;;;;;;-145.01;100.00;64805.59;4992741;28;20030;-60
2021/08/14 10:16:58;;;;;;;6.93;4.68;;;;;;;-145.01;100.00;64805.59;4990916;28;20038;-61
2021/08/14 10:19:24;;;;;;;7.20;4.63;;;;;;;-145.01;100.00;64805.59;4991560;28;20034;-60
2021/08/14 10:21:54;;;;;;;7.70;4.68;;;;;;;-145.01;100.00;64805.59;4990999;28;20031;-61
2021/08/14 10:24:19;;;;;;;10.05;4.60;;;;;;;-145.01;100.00;64805.59;4992966;28;20026;-61
2021/08/14 10:26:45;;;;;;;6.47;4.47;;;;;;;-145.01;100.00;64805.59;4992502;28;20166;-60
2021/08/14 10:29:16;;;;;;;7.95;4.47;;;;;;;-145.01;100.00;64805.59;4993108;28;20026;-61
2021/08/14 10:31:44;;;;;;;7.65;4.53;;;;;;;-145.01;100.00;64805.59;4992795;28;20117;-60
2021/08/14 10:34:12;;;;;;;8.80;4.70;;;;;;;-145.01;100.00;64805.59;4992686;28;20018;-60
2021/08/14 10:36:38;;;;;;;7.47;4.50;;;;;;;-145.01;100.00;64805.59;4992380;28;20097;-60
2021/08/14 10:39:45;;;;;;;7.03;4.70;;;;;;;-145.01;100.00;64805.59;4992673;28;20038;-60
2021/08/14 10:42:10;;;;;;;8.90;4.57;;;;;;;-145.01;100.00;64805.59;4994955;28;20069;-60
2021/08/14 10:44:48;;;;;;;10.45;4.88;;;;;;;-145.01;100.00;64805.59;4991499;28;20390;-60
2021/08/14 10:47:32;;;;;;;10.70;4.95;;;;;;;-145.01;100.00;64805.59;4992198;28;20042;-60
2021/08/14 10:50:01;;;;;;;12.98;5.30;;;;;;;-145.01;100.00;64805.59;4992824;28;20058;-61
2021/08/14 10:52:33;;;;;;;6.80;4.30;;;;;;;-145.01;100.00;64805.59;4993588;28;20346;-60
2021/08/14 10:55:00;;;;;;;10.38;5.05;;;;;;;-145.01;100.00;64805.59;4996077;28;20457;-60
2021/08/14 10:57:43;;;;;;;7.75;5.00;;;;;;;-145.01;100.00;64805.59;4994642;28;20485;-60